sensor_id;sensor_type;location;lat;lon;timestamp;temperature;humidity
55488;DHT22;41352;53.158;6.788;2022-10-19T00:01:14;11.00;99.90
55488;DHT22;41352;53.158;6.788;2022-10-19T00:03:40;11.00;99.90
55488;DHT22;41352;53.158;6.788;2022-10-19T00:06:14;11.00;99.90
55488;DHT22;41352;53.158;6.788;2022-10-19T00:08:40;11.00;99.90
55488;DHT22;41352;53.158;6.788;2022-10-19T00:11:06;11.10;99.90
55488;DHT22;41352;53.158;6.788;2022-10-19T00:13:32;11.00;99.90
55488;DHT22;41352;53.158;6.788;2022-10-19T00:15:57;11.00;99.90
55488;DHT22;41352;53.158;6.788;2022-10-19T00:18:23;11.10;99.90
55488;DHT22;41352;53.158;6.788;2022-10-19T00:20:49;11.00;99.90
55488;DHT22;41352;53.158;6.788;2022-10-19T00:23:14;11.00;99.90
55488;DHT22;41352;53.158;6.788;2022-10-19T00:25:40;11.00;99.90
55488;DHT22;41352;53.158;6.788;2022-10-19T00:28:05;11.00;99.90
55488;DHT22;41352;53.158;6.788;2022-10-19T00:30:31;10.90;99.90
55488;DHT22;41352;53.158;6.788;2022-10-19T00:38:47;11.00;99.90
55488;DHT22;41352;53.158;6.788;2022-10-19T00:41:13;11.00;99.90
55488;DHT22;41352;53.158;6.788;2022-10-19T00:46:24;11.00;99.90
55488;DHT22;41352;53.158;6.788;2022-10-19T00:48:52;11.10;99.90
55488;DHT22;41352;53.158;6.788;2022-10-19T00:51:18;11.10;99.90
55488;DHT22;41352;53.158;6.788;2022-10-19T00:53:44;11.10;99.90
55488;DHT22;41352;53.158;6.788;2022-10-19T00:56:11;11.10;99.90
55488;DHT22;41352;53.158;6.788;2022-10-19T00:58:37;11.10;99.90
55488;DHT22;41352;53.158;6.788;2022-10-19T01:01:03;11.10;99.90
55488;DHT22;41352;53.158;6.788;2022-10-19T01:03:30;11.10;99.90
55488;DHT22;41352;53.158;6.788;2022-10-19T01:05:56;11.20;99.90
55488;DHT22;41352;53.158;6.788;2022-10-19T01:08:21;11.10;99.90
55488;DHT22;41352;53.158;6.788;2022-10-19T01:16:03;11.20;99.90
55488;DHT22;41352;53.158;6.788;2022-10-19T01:18:36;11.20;99.90
55488;DHT22;41352;53.158;6.788;2022-10-19T01:28:58;11.20;99.90
55488;DHT22;41352;53.158;6.788;2022-10-19T01:31:46;11.20;99.90
55488;DHT22;41352;53.158;6.788;2022-10-19T01:34:16;11.20;99.90
55488;DHT22;41352;53.158;6.788;2022-10-19T01:39:16;11.30;99.90
55488;DHT22;41352;53.158;6.788;2022-10-19T01:41:48;11.20;99.90
55488;DHT22;41352;53.158;6.788;2022-10-19T01:44:17;11.30;99.90
55488;DHT22;41352;53.158;6.788;2022-10-19T01:46:50;11.20;99.90
55488;DHT22;41352;53.158;6.788;2022-10-19T01:52:21;11.20;99.90
55488;DHT22;41352;53.158;6.788;2022-10-19T01:54:48;11.20;99.90
55488;DHT22;41352;53.158;6.788;2022-10-19T01:57:16;11.30;99.90
55488;DHT22;41352;53.158;6.788;2022-10-19T01:59:43;11.30;99.90
55488;DHT22;41352;53.158;6.788;2022-10-19T02:02:10;11.30;99.90
55488;DHT22;41352;53.158;6.788;2022-10-19T02:04:36;11.40;99.90
55488;DHT22;41352;53.158;6.788;2022-10-19T02:07:02;11.30;99.90
55488;DHT22;41352;53.158;6.788;2022-10-19T02:09:29;11.30;99.90
55488;DHT22;41352;53.158;6.788;2022-10-19T02:11:55;11.30;99.90
55488;DHT22;41352;53.158;6.788;2022-10-19T02:14:23;11.30;99.90
55488;DHT22;41352;53.158;6.788;2022-10-19T02:16:51;11.50;99.90
55488;DHT22;41352;53.158;6.788;2022-10-19T02:19:19;11.30;99.90
55488;DHT22;41352;53.158;6.788;2022-10-19T02:21:45;11.30;99.90
55488;DHT22;41352;53.158;6.788;2022-10-19T02:24:11;11.30;99.90
55488;DHT22;41352;53.158;6.788;2022-10-19T02:26:36;11.30;99.90
55488;DHT22;41352;53.158;6.788;2022-10-19T02:29:02;11.30;99.90
55488;DHT22;41352;53.158;6.788;2022-10-19T02:31:28;11.30;99.90
55488;DHT22;41352;53.158;6.788;2022-10-19T02:33:53;11.30;99.90
55488;DHT22;41352;53.158;6.788;2022-10-19T02:36:19;11.30;99.90
55488;DHT22;41352;53.158;6.788;2022-10-19T02:38:45;11.30;99.90
55488;DHT22;41352;53.158;6.788;2022-10-19T02:41:13;11.30;99.90
55488;DHT22;41352;53.158;6.788;2022-10-19T02:43:40;11.30;99.90
55488;DHT22;41352;53.158;6.788;2022-10-19T02:46:09;11.30;99.90
55488;DHT22;41352;53.158;6.788;2022-10-19T02:48:37;11.30;99.90
55488;DHT22;41352;53.158;6.788;2022-10-19T02:51:03;11.20;99.90
55488;DHT22;41352;53.158;6.788;2022-10-19T02:53:28;11.20;99.90
55488;DHT22;41352;53.158;6.788;2022-10-19T02:55:54;11.10;99.90
55488;DHT22;41352;53.158;6.788;2022-10-19T02:58:19;11.10;99.90
55488;DHT22;41352;53.158;6.788;2022-10-19T03:00:45;10.90;99.90
55488;DHT22;41352;53.158;6.788;2022-10-19T03:03:10;11.00;99.90
55488;DHT22;41352;53.158;6.788;2022-10-19T03:05:36;10.90;99.90
55488;DHT22;41352;53.158;6.788;2022-10-19T03:08:02;10.80;99.90
55488;DHT22;41352;53.158;6.788;2022-10-19T03:10:27;10.70;99.90
55488;DHT22;41352;53.158;6.788;2022-10-19T03:12:53;10.60;99.90
55488;DHT22;41352;53.158;6.788;2022-10-19T03:15:21;10.50;99.90
55488;DHT22;41352;53.158;6.788;2022-10-19T03:17:51;10.50;99.90
55488;DHT22;41352;53.158;6.788;2022-10-19T03:20:16;10.40;99.90
55488;DHT22;41352;53.158;6.788;2022-10-19T03:22:42;10.30;99.90
55488;DHT22;41352;53.158;6.788;2022-10-19T03:25:08;10.20;99.90
55488;DHT22;41352;53.158;6.788;2022-10-19T03:27:33;10.10;99.90
55488;DHT22;41352;53.158;6.788;2022-10-19T03:29:59;10.00;99.90
55488;DHT22;41352;53.158;6.788;2022-10-19T03:32:24;10.00;99.90
55488;DHT22;41352;53.158;6.788;2022-10-19T03:34:50;9.90;99.90
55488;DHT22;41352;53.158;6.788;2022-10-19T03:37:15;9.90;99.90
55488;DHT22;41352;53.158;6.788;2022-10-19T03:39:41;9.90;99.90
55488;DHT22;41352;53.158;6.788;2022-10-19T03:42:06;9.80;99.90
55488;DHT22;41352;53.158;6.788;2022-10-19T03:44:32;9.80;99.90
55488;DHT22;41352;53.158;6.788;2022-10-19T03:46:57;9.70;99.90
55488;DHT22;41352;53.158;6.788;2022-10-19T03:49:23;10.10;99.90
55488;DHT22;41352;53.158;6.788;2022-10-19T03:51:48;9.70;99.90
55488;DHT22;41352;53.158;6.788;2022-10-19T03:54:14;9.70;99.90
55488;DHT22;41352;53.158;6.788;2022-10-19T03:56:40;9.70;99.90
55488;DHT22;41352;53.158;6.788;2022-10-19T03:59:06;9.70;99.90
55488;DHT22;41352;53.158;6.788;2022-10-19T04:01:37;9.70;99.90
55488;DHT22;41352;53.158;6.788;2022-10-19T04:04:05;9.80;99.90
55488;DHT22;41352;53.158;6.788;2022-10-19T04:06:32;9.70;99.90
55488;DHT22;41352;53.158;6.788;2022-10-19T04:08:58;9.70;99.90
55488;DHT22;41352;53.158;6.788;2022-10-19T04:11:24;9.70;99.90
55488;DHT22;41352;53.158;6.788;2022-10-19T04:13:50;9.70;99.90
55488;DHT22;41352;53.158;6.788;2022-10-19T04:16:17;9.70;99.90
55488;DHT22;41352;53.158;6.788;2022-10-19T04:18:43;9.80;99.90
55488;DHT22;41352;53.158;6.788;2022-10-19T04:21:16;9.80;99.90
55488;DHT22;41352;53.158;6.788;2022-10-19T04:23:43;9.80;99.90
55488;DHT22;41352;53.158;6.788;2022-10-19T04:26:09;9.80;99.90
55488;DHT22;41352;53.158;6.788;2022-10-19T04:28:34;9.80;99.90
55488;DHT22;41352;53.158;6.788;2022-10-19T04:31:00;9.80;99.90
55488;DHT22;41352;53.158;6.788;2022-10-19T04:33:26;10.10;99.90
55488;DHT22;41352;53.158;6.788;2022-10-19T04:35:56;9.80;99.90
55488;DHT22;41352;53.158;6.788;2022-10-19T04:38:22;9.80;99.90
55488;DHT22;41352;53.158;6.788;2022-10-19T04:40:47;9.80;99.90
55488;DHT22;41352;53.158;6.788;2022-10-19T04:43:13;9.80;99.90
55488;DHT22;41352;53.158;6.788;2022-10-19T04:45:38;9.80;99.90
55488;DHT22;41352;53.158;6.788;2022-10-19T04:48:04;9.80;99.90
55488;DHT22;41352;53.158;6.788;2022-10-19T04:50:29;9.80;99.90
55488;DHT22;41352;53.158;6.788;2022-10-19T04:52:55;9.90;99.90
55488;DHT22;41352;53.158;6.788;2022-10-19T04:55:20;9.80;99.90
55488;DHT22;41352;53.158;6.788;2022-10-19T04:57:46;9.90;99.90
55488;DHT22;41352;53.158;6.788;2022-10-19T05:00:12;9.90;99.90
55488;DHT22;41352;53.158;6.788;2022-10-19T05:02:41;9.90;99.90
55488;DHT22;41352;53.158;6.788;2022-10-19T05:05:07;9.90;99.90
55488;DHT22;41352;53.158;6.788;2022-10-19T05:07:32;10.00;99.90
55488;DHT22;41352;53.158;6.788;2022-10-19T05:09:58;10.00;99.90
55488;DHT22;41352;53.158;6.788;2022-10-19T05:12:23;10.00;99.90
55488;DHT22;41352;53.158;6.788;2022-10-19T05:14:49;10.00;99.90
55488;DHT22;41352;53.158;6.788;2022-10-19T05:17:14;10.00;99.90
55488;DHT22;41352;53.158;6.788;2022-10-19T05:19:40;10.00;99.90
55488;DHT22;41352;53.158;6.788;2022-10-19T05:22:07;10.10;99.90
55488;DHT22;41352;53.158;6.788;2022-10-19T05:24:32;10.00;99.90
55488;DHT22;41352;53.158;6.788;2022-10-19T05:26:58;10.00;99.90
55488;DHT22;41352;53.158;6.788;2022-10-19T05:29:23;10.00;99.90
55488;DHT22;41352;53.158;6.788;2022-10-19T05:31:49;10.00;99.90
55488;DHT22;41352;53.158;6.788;2022-10-19T05:34:14;10.10;99.90
55488;DHT22;41352;53.158;6.788;2022-10-19T05:36:40;10.10;99.90
55488;DHT22;41352;53.158;6.788;2022-10-19T05:39:07;10.10;99.90
55488;DHT22;41352;53.158;6.788;2022-10-19T05:41:33;10.10;99.90
55488;DHT22;41352;53.158;6.788;2022-10-19T05:43:59;10.10;99.90
55488;DHT22;41352;53.158;6.788;2022-10-19T05:46:26;10.10;99.90
55488;DHT22;41352;53.158;6.788;2022-10-19T05:48:53;10.20;99.90
55488;DHT22;41352;53.158;6.788;2022-10-19T05:51:19;10.20;99.90
55488;DHT22;41352;53.158;6.788;2022-10-19T05:53:45;10.20;99.90
55488;DHT22;41352;53.158;6.788;2022-10-19T05:56:16;10.20;99.90
55488;DHT22;41352;53.158;6.788;2022-10-19T05:58:41;10.20;99.90
55488;DHT22;41352;53.158;6.788;2022-10-19T06:01:07;10.30;99.90
55488;DHT22;41352;53.158;6.788;2022-10-19T06:03:34;10.30;99.90
55488;DHT22;41352;53.158;6.788;2022-10-19T06:06:01;10.30;99.90
55488;DHT22;41352;53.158;6.788;2022-10-19T06:08:26;10.30;99.90
55488;DHT22;41352;53.158;6.788;2022-10-19T06:10:52;10.30;99.90
55488;DHT22;41352;53.158;6.788;2022-10-19T06:13:18;10.30;99.90
55488;DHT22;41352;53.158;6.788;2022-10-19T06:15:48;10.40;99.90
55488;DHT22;41352;53.158;6.788;2022-10-19T06:18:14;10.40;99.90
55488;DHT22;41352;53.158;6.788;2022-10-19T06:20:40;10.40;99.90
55488;DHT22;41352;53.158;6.788;2022-10-19T06:23:06;10.50;99.90
55488;DHT22;41352;53.158;6.788;2022-10-19T06:25:32;10.50;99.90
55488;DHT22;41352;53.158;6.788;2022-10-19T06:27:58;10.50;99.90
55488;DHT22;41352;53.158;6.788;2022-10-19T06:30:24;10.60;99.90
55488;DHT22;41352;53.158;6.788;2022-10-19T06:32:50;10.60;99.90
55488;DHT22;41352;53.158;6.788;2022-10-19T06:35:16;10.60;99.90
55488;DHT22;41352;53.158;6.788;2022-10-19T06:37:41;10.60;99.90
55488;DHT22;41352;53.158;6.788;2022-10-19T06:40:07;10.70;99.90
55488;DHT22;41352;53.158;6.788;2022-10-19T06:42:33;10.70;99.90
55488;DHT22;41352;53.158;6.788;2022-10-19T06:44:59;10.80;99.90
55488;DHT22;41352;53.158;6.788;2022-10-19T06:47:24;10.90;99.90
55488;DHT22;41352;53.158;6.788;2022-10-19T06:49:55;10.90;99.90
55488;DHT22;41352;53.158;6.788;2022-10-19T06:52:21;11.00;99.90
55488;DHT22;41352;53.158;6.788;2022-10-19T06:54:47;10.90;99.90
55488;DHT22;41352;53.158;6.788;2022-10-19T06:57:12;11.00;99.90
55488;DHT22;41352;53.158;6.788;2022-10-19T06:59:38;11.00;99.90
55488;DHT22;41352;53.158;6.788;2022-10-19T07:02:03;11.00;99.90
55488;DHT22;41352;53.158;6.788;2022-10-19T07:04:29;11.10;99.90
55488;DHT22;41352;53.158;6.788;2022-10-19T07:06:54;11.10;99.90
55488;DHT22;41352;53.158;6.788;2022-10-19T07:09:20;11.20;99.90
55488;DHT22;41352;53.158;6.788;2022-10-19T07:11:46;11.20;99.90
55488;DHT22;41352;53.158;6.788;2022-10-19T07:14:12;11.20;99.90
55488;DHT22;41352;53.158;6.788;2022-10-19T07:16:38;11.30;99.90
55488;DHT22;41352;53.158;6.788;2022-10-19T07:19:03;11.30;99.90
55488;DHT22;41352;53.158;6.788;2022-10-19T07:21:29;11.40;99.90
55488;DHT22;41352;53.158;6.788;2022-10-19T07:23:54;11.40;99.90
55488;DHT22;41352;53.158;6.788;2022-10-19T07:26:21;11.50;99.90
55488;DHT22;41352;53.158;6.788;2022-10-19T07:28:48;11.50;99.90
55488;DHT22;41352;53.158;6.788;2022-10-19T07:31:15;11.80;99.90
55488;DHT22;41352;53.158;6.788;2022-10-19T07:33:45;11.70;99.90
55488;DHT22;41352;53.158;6.788;2022-10-19T07:36:11;11.80;99.90
55488;DHT22;41352;53.158;6.788;2022-10-19T07:38:38;11.80;99.90
55488;DHT22;41352;53.158;6.788;2022-10-19T07:43:29;12.00;99.90
55488;DHT22;41352;53.158;6.788;2022-10-19T07:45:59;12.10;99.90
55488;DHT22;41352;53.158;6.788;2022-10-19T07:48:24;12.20;99.90
55488;DHT22;41352;53.158;6.788;2022-10-19T07:50:50;12.10;99.90
55488;DHT22;41352;53.158;6.788;2022-10-19T07:53:16;13.70;99.90
55488;DHT22;41352;53.158;6.788;2022-10-19T07:55:41;12.30;99.90
55488;DHT22;41352;53.158;6.788;2022-10-19T07:58:07;12.30;99.90
55488;DHT22;41352;53.158;6.788;2022-10-19T08:00:32;12.40;99.90
55488;DHT22;41352;53.158;6.788;2022-10-19T08:02:58;12.40;99.90
55488;DHT22;41352;53.158;6.788;2022-10-19T08:05:23;12.60;99.90
55488;DHT22;41352;53.158;6.788;2022-10-19T08:07:49;12.50;99.90
55488;DHT22;41352;53.158;6.788;2022-10-19T08:10:14;12.60;99.90
55488;DHT22;41352;53.158;6.788;2022-10-19T08:12:40;12.60;99.90
55488;DHT22;41352;53.158;6.788;2022-10-19T08:15:06;12.60;99.90
55488;DHT22;41352;53.158;6.788;2022-10-19T08:17:35;12.60;99.90
55488;DHT22;41352;53.158;6.788;2022-10-19T08:20:02;12.80;99.90
55488;DHT22;41352;53.158;6.788;2022-10-19T08:22:27;12.90;99.90
55488;DHT22;41352;53.158;6.788;2022-10-19T08:24:53;13.10;99.90
55488;DHT22;41352;53.158;6.788;2022-10-19T08:27:18;13.10;99.90
55488;DHT22;41352;53.158;6.788;2022-10-19T08:29:44;13.10;99.90
55488;DHT22;41352;53.158;6.788;2022-10-19T08:32:10;13.30;99.90
55488;DHT22;41352;53.158;6.788;2022-10-19T08:34:35;13.40;99.90
55488;DHT22;41352;53.158;6.788;2022-10-19T08:37:01;13.30;99.90
55488;DHT22;41352;53.158;6.788;2022-10-19T08:39:27;13.40;99.90
55488;DHT22;41352;53.158;6.788;2022-10-19T08:47:26;13.40;99.90
55488;DHT22;41352;53.158;6.788;2022-10-19T08:49:53;13.40;99.90
55488;DHT22;41352;53.158;6.788;2022-10-19T08:52:29;13.50;99.90
55488;DHT22;41352;53.158;6.788;2022-10-19T08:54:59;13.50;99.90
55488;DHT22;41352;53.158;6.788;2022-10-19T09:02:33;13.70;99.90
55488;DHT22;41352;53.158;6.788;2022-10-19T09:05:08;13.80;99.90
55488;DHT22;41352;53.158;6.788;2022-10-19T09:07:37;13.70;99.90
55488;DHT22;41352;53.158;6.788;2022-10-19T09:10:15;13.70;99.90
55488;DHT22;41352;53.158;6.788;2022-10-19T09:15:16;13.70;99.90
55488;DHT22;41352;53.158;6.788;2022-10-19T09:17:42;13.80;99.90
55488;DHT22;41352;53.158;6.788;2022-10-19T09:20:25;13.80;99.90
55488;DHT22;41352;53.158;6.788;2022-10-19T09:23:04;13.90;99.90
55488;DHT22;41352;53.158;6.788;2022-10-19T09:25:31;14.00;99.90
55488;DHT22;41352;53.158;6.788;2022-10-19T09:28:00;14.00;99.90
55488;DHT22;41352;53.158;6.788;2022-10-19T09:30:27;14.10;99.90
55488;DHT22;41352;53.158;6.788;2022-10-19T09:32:58;14.20;99.90
55488;DHT22;41352;53.158;6.788;2022-10-19T09:35:29;14.10;99.90
55488;DHT22;41352;53.158;6.788;2022-10-19T09:37:56;14.10;99.90
55488;DHT22;41352;53.158;6.788;2022-10-19T09:40:23;14.30;99.90
55488;DHT22;41352;53.158;6.788;2022-10-19T09:42:49;14.40;99.90
55488;DHT22;41352;53.158;6.788;2022-10-19T09:48:46;14.70;99.90
55488;DHT22;41352;53.158;6.788;2022-10-19T09:51:09;14.90;99.90
55488;DHT22;41352;53.158;6.788;2022-10-19T09:53:35;14.80;99.90
55488;DHT22;41352;53.158;6.788;2022-10-19T09:56:07;14.90;99.90
55488;DHT22;41352;53.158;6.788;2022-10-19T09:58:33;15.00;99.90
55488;DHT22;41352;53.158;6.788;2022-10-19T10:00:59;15.20;99.90
55488;DHT22;41352;53.158;6.788;2022-10-19T10:03:27;15.40;99.90
55488;DHT22;41352;53.158;6.788;2022-10-19T10:05:53;15.40;99.90
55488;DHT22;41352;53.158;6.788;2022-10-19T10:08:20;15.30;99.90
55488;DHT22;41352;53.158;6.788;2022-10-19T10:10:52;15.30;99.90
55488;DHT22;41352;53.158;6.788;2022-10-19T10:13:19;15.30;99.90
55488;DHT22;41352;53.158;6.788;2022-10-19T10:15:49;15.30;99.90
55488;DHT22;41352;53.158;6.788;2022-10-19T10:18:15;15.40;99.90
55488;DHT22;41352;53.158;6.788;2022-10-19T10:23:23;15.10;99.90
55488;DHT22;41352;53.158;6.788;2022-10-19T10:25:49;14.90;99.90
55488;DHT22;41352;53.158;6.788;2022-10-19T10:28:19;14.80;99.90
55488;DHT22;41352;53.158;6.788;2022-10-19T10:30:45;14.70;99.90
55488;DHT22;41352;53.158;6.788;2022-10-19T10:33:17;14.50;99.90
55488;DHT22;41352;53.158;6.788;2022-10-19T10:35:49;14.50;99.90
55488;DHT22;41352;53.158;6.788;2022-10-19T10:38:22;14.50;99.90
55488;DHT22;41352;53.158;6.788;2022-10-19T10:40:59;14.60;99.90
55488;DHT22;41352;53.158;6.788;2022-10-19T10:43:27;14.90;99.90
55488;DHT22;41352;53.158;6.788;2022-10-19T10:45:55;15.00;99.90
55488;DHT22;41352;53.158;6.788;2022-10-19T10:50:49;15.20;99.90
55488;DHT22;41352;53.158;6.788;2022-10-19T10:55:54;15.40;99.90
55488;DHT22;41352;53.158;6.788;2022-10-19T10:58:23;15.50;99.90
55488;DHT22;41352;53.158;6.788;2022-10-19T11:00:56;15.50;99.90
55488;DHT22;41352;53.158;6.788;2022-10-19T11:03:25;15.40;99.90
55488;DHT22;41352;53.158;6.788;2022-10-19T11:05:55;15.20;99.90
55488;DHT22;41352;53.158;6.788;2022-10-19T11:08:23;15.20;99.90
55488;DHT22;41352;53.158;6.788;2022-10-19T11:10:56;15.20;99.90
55488;DHT22;41352;53.158;6.788;2022-10-19T11:13:28;15.20;99.90
55488;DHT22;41352;53.158;6.788;2022-10-19T11:18:33;15.30;99.90
55488;DHT22;41352;53.158;6.788;2022-10-19T11:21:09;15.50;99.90
55488;DHT22;41352;53.158;6.788;2022-10-19T11:23:40;15.80;99.90
55488;DHT22;41352;53.158;6.788;2022-10-19T11:26:13;15.90;99.90
55488;DHT22;41352;53.158;6.788;2022-10-19T11:28:48;16.20;99.90
55488;DHT22;41352;53.158;6.788;2022-10-19T11:31:21;16.10;99.90
55488;DHT22;41352;53.158;6.788;2022-10-19T11:39:09;17.00;99.90
55488;DHT22;41352;53.158;6.788;2022-10-19T11:41:37;16.80;99.90
55488;DHT22;41352;53.158;6.788;2022-10-19T11:56:56;16.40;99.90
55488;DHT22;41352;53.158;6.788;2022-10-19T12:01:55;16.70;99.90
55488;DHT22;41352;53.158;6.788;2022-10-19T12:04:28;16.40;99.90
55488;DHT22;41352;53.158;6.788;2022-10-19T12:14:32;15.60;99.90
55488;DHT22;41352;53.158;6.788;2022-10-19T12:17:04;15.60;99.90
55488;DHT22;41352;53.158;6.788;2022-10-19T12:19:33;15.50;99.90
55488;DHT22;41352;53.158;6.788;2022-10-19T12:22:02;15.50;99.90
55488;DHT22;41352;53.158;6.788;2022-10-19T12:24:28;15.50;99.90
55488;DHT22;41352;53.158;6.788;2022-10-19T12:26:55;15.40;99.90
55488;DHT22;41352;53.158;6.788;2022-10-19T12:29:23;15.40;99.90
55488;DHT22;41352;53.158;6.788;2022-10-19T12:31:49;15.40;99.90
55488;DHT22;41352;53.158;6.788;2022-10-19T12:47:22;15.00;99.90
55488;DHT22;41352;53.158;6.788;2022-10-19T12:49:49;15.10;99.90
55488;DHT22;41352;53.158;6.788;2022-10-19T12:57:37;15.30;99.90
55488;DHT22;41352;53.158;6.788;2022-10-19T13:00:25;15.40;99.90
55488;DHT22;41352;53.158;6.788;2022-10-19T13:03:00;15.50;99.90
55488;DHT22;41352;53.158;6.788;2022-10-19T13:05:26;15.50;99.90
55488;DHT22;41352;53.158;6.788;2022-10-19T13:07:52;15.50;99.90
55488;DHT22;41352;53.158;6.788;2022-10-19T13:10:20;15.70;99.90
55488;DHT22;41352;53.158;6.788;2022-10-19T13:12:46;15.90;99.90
55488;DHT22;41352;53.158;6.788;2022-10-19T13:17:56;15.40;99.90
55488;DHT22;41352;53.158;6.788;2022-10-19T13:25:30;17.30;99.90
55488;DHT22;41352;53.158;6.788;2022-10-19T13:27:59;16.90;99.90
55488;DHT22;41352;53.158;6.788;2022-10-19T13:35:44;15.30;99.90
55488;DHT22;41352;53.158;6.788;2022-10-19T13:43:17;15.20;99.90
55488;DHT22;41352;53.158;6.788;2022-10-19T13:45:51;15.10;99.90
55488;DHT22;41352;53.158;6.788;2022-10-19T13:48:20;15.20;99.90
55488;DHT22;41352;53.158;6.788;2022-10-19T13:50:52;15.00;99.90
55488;DHT22;41352;53.158;6.788;2022-10-19T13:53:34;14.90;99.90
55488;DHT22;41352;53.158;6.788;2022-10-19T13:56:09;14.90;99.90
55488;DHT22;41352;53.158;6.788;2022-10-19T13:58:56;15.10;99.90
55488;DHT22;41352;53.158;6.788;2022-10-19T14:11:42;15.20;99.90
55488;DHT22;41352;53.158;6.788;2022-10-19T14:16:51;14.90;99.90
55488;DHT22;41352;53.158;6.788;2022-10-19T14:19:25;14.80;99.90
55488;DHT22;41352;53.158;6.788;2022-10-19T14:21:55;14.70;99.90
55488;DHT22;41352;53.158;6.788;2022-10-19T14:24:26;14.70;99.90
55488;DHT22;41352;53.158;6.788;2022-10-19T14:26:52;14.60;99.90
55488;DHT22;41352;53.158;6.788;2022-10-19T14:29:18;14.60;99.90
55488;DHT22;41352;53.158;6.788;2022-10-19T14:31:43;14.60;99.90
55488;DHT22;41352;53.158;6.788;2022-10-19T14:34:09;14.60;99.90
55488;DHT22;41352;53.158;6.788;2022-10-19T14:36:36;14.60;99.90
55488;DHT22;41352;53.158;6.788;2022-10-19T14:39:02;14.70;99.90
55488;DHT22;41352;53.158;6.788;2022-10-19T14:41:32;14.60;99.90
55488;DHT22;41352;53.158;6.788;2022-10-19T14:44:00;14.60;99.90
55488;DHT22;41352;53.158;6.788;2022-10-19T14:46:30;14.50;99.90
55488;DHT22;41352;53.158;6.788;2022-10-19T14:49:01;14.40;99.90
55488;DHT22;41352;53.158;6.788;2022-10-19T14:51:28;14.30;99.90
55488;DHT22;41352;53.158;6.788;2022-10-19T14:53:59;14.40;99.90
55488;DHT22;41352;53.158;6.788;2022-10-19T15:01:38;14.10;99.90
55488;DHT22;41352;53.158;6.788;2022-10-19T15:04:03;14.10;99.90
55488;DHT22;41352;53.158;6.788;2022-10-19T15:06:29;14.00;99.90
55488;DHT22;41352;53.158;6.788;2022-10-19T15:09:00;14.00;99.90
55488;DHT22;41352;53.158;6.788;2022-10-19T15:11:27;13.80;99.90
55488;DHT22;41352;53.158;6.788;2022-10-19T15:13:55;13.70;99.90
55488;DHT22;41352;53.158;6.788;2022-10-19T15:16:28;13.70;99.90
55488;DHT22;41352;53.158;6.788;2022-10-19T15:18:53;13.60;99.90
55488;DHT22;41352;53.158;6.788;2022-10-19T15:21:19;13.60;99.90
55488;DHT22;41352;53.158;6.788;2022-10-19T15:23:46;13.60;99.90
55488;DHT22;41352;53.158;6.788;2022-10-19T15:26:16;13.50;99.90
55488;DHT22;41352;53.158;6.788;2022-10-19T15:28:42;13.40;99.90
55488;DHT22;41352;53.158;6.788;2022-10-19T15:31:13;13.30;99.90
55488;DHT22;41352;53.158;6.788;2022-10-19T15:33:41;13.20;99.90
55488;DHT22;41352;53.158;6.788;2022-10-19T15:36:08;13.20;99.90
55488;DHT22;41352;53.158;6.788;2022-10-19T15:38:41;13.10;99.90
55488;DHT22;41352;53.158;6.788;2022-10-19T15:41:13;13.10;99.90
55488;DHT22;41352;53.158;6.788;2022-10-19T15:43:44;13.00;99.90
55488;DHT22;41352;53.158;6.788;2022-10-19T15:46:26;12.90;99.90
55488;DHT22;41352;53.158;6.788;2022-10-19T15:48:53;12.70;99.90
55488;DHT22;41352;53.158;6.788;2022-10-19T15:56:16;12.60;99.90
55488;DHT22;41352;53.158;6.788;2022-10-19T15:58:41;12.50;99.90
55488;DHT22;41352;53.158;6.788;2022-10-19T16:01:13;12.40;99.90
55488;DHT22;41352;53.158;6.788;2022-10-19T16:03:40;12.30;99.90
55488;DHT22;41352;53.158;6.788;2022-10-19T16:06:05;12.30;99.90
55488;DHT22;41352;53.158;6.788;2022-10-19T16:08:31;12.20;99.90
55488;DHT22;41352;53.158;6.788;2022-10-19T16:10:56;12.10;99.90
55488;DHT22;41352;53.158;6.788;2022-10-19T16:13:22;12.10;99.90
55488;DHT22;41352;53.158;6.788;2022-10-19T16:15:47;11.90;99.90
55488;DHT22;41352;53.158;6.788;2022-10-19T16:18:14;11.90;99.90
55488;DHT22;41352;53.158;6.788;2022-10-19T16:20:40;11.70;99.90
55488;DHT22;41352;53.158;6.788;2022-10-19T16:23:07;11.70;99.90
55488;DHT22;41352;53.158;6.788;2022-10-19T16:25:33;11.50;99.90
55488;DHT22;41352;53.158;6.788;2022-10-19T16:27:59;11.40;99.90
55488;DHT22;41352;53.158;6.788;2022-10-19T16:30:24;11.40;99.90
55488;DHT22;41352;53.158;6.788;2022-10-19T16:32:50;11.30;99.90
55488;DHT22;41352;53.158;6.788;2022-10-19T16:35:15;11.30;99.90
55488;DHT22;41352;53.158;6.788;2022-10-19T16:37:41;11.30;99.90
55488;DHT22;41352;53.158;6.788;2022-10-19T16:40:07;11.10;99.90
55488;DHT22;41352;53.158;6.788;2022-10-19T16:42:32;11.10;99.90
55488;DHT22;41352;53.158;6.788;2022-10-19T16:44:59;11.00;99.90
55488;DHT22;41352;53.158;6.788;2022-10-19T16:47:25;10.90;99.90
55488;DHT22;41352;53.158;6.788;2022-10-19T16:49:57;11.00;99.90
55488;DHT22;41352;53.158;6.788;2022-10-19T16:52:24;10.80;99.90
55488;DHT22;41352;53.158;6.788;2022-10-19T16:54:50;10.80;99.90
55488;DHT22;41352;53.158;6.788;2022-10-19T16:57:15;10.70;99.90
55488;DHT22;41352;53.158;6.788;2022-10-19T16:59:41;10.60;99.90
55488;DHT22;41352;53.158;6.788;2022-10-19T17:02:06;10.60;99.90
55488;DHT22;41352;53.158;6.788;2022-10-19T17:04:32;10.60;99.90
55488;DHT22;41352;53.158;6.788;2022-10-19T17:06:57;10.50;99.90
55488;DHT22;41352;53.158;6.788;2022-10-19T17:09:23;10.50;99.90
55488;DHT22;41352;53.158;6.788;2022-10-19T17:11:49;10.50;99.90
55488;DHT22;41352;53.158;6.788;2022-10-19T17:14:14;10.40;99.90
55488;DHT22;41352;53.158;6.788;2022-10-19T17:16:40;10.40;99.90
55488;DHT22;41352;53.158;6.788;2022-10-19T17:19:06;10.40;99.90
55488;DHT22;41352;53.158;6.788;2022-10-19T17:21:33;10.40;99.90
55488;DHT22;41352;53.158;6.788;2022-10-19T17:24:00;10.50;99.90
55488;DHT22;41352;53.158;6.788;2022-10-19T17:26:27;10.30;99.90
55488;DHT22;41352;53.158;6.788;2022-10-19T17:28:53;10.30;99.90
55488;DHT22;41352;53.158;6.788;2022-10-19T17:31:18;10.30;99.90
55488;DHT22;41352;53.158;6.788;2022-10-19T17:33:44;9.00;99.90
55488;DHT22;41352;53.158;6.788;2022-10-19T17:36:11;10.20;99.90
55488;DHT22;41352;53.158;6.788;2022-10-19T17:38:37;10.20;99.90
55488;DHT22;41352;53.158;6.788;2022-10-19T17:41:10;10.20;99.90
55488;DHT22;41352;53.158;6.788;2022-10-19T17:43:36;10.20;99.90
55488;DHT22;41352;53.158;6.788;2022-10-19T17:46:03;10.20;99.90
55488;DHT22;41352;53.158;6.788;2022-10-19T17:48:29;10.20;99.90
55488;DHT22;41352;53.158;6.788;2022-10-19T17:50:59;10.20;99.90
55488;DHT22;41352;53.158;6.788;2022-10-19T17:53:25;10.20;99.90
55488;DHT22;41352;53.158;6.788;2022-10-19T17:55:50;10.20;99.90
55488;DHT22;41352;53.158;6.788;2022-10-19T17:58:16;10.10;99.90